sensor_id;sensor_type;location;lat;lon;timestamp;pressure;altitude;pressure_sealevel;temperature;humidity
64876;BME280;51369;49.862;9.908;2023-01-05T00:01:37;98421.31;;;12.52;76.63
64876;BME280;51369;49.862;9.908;2023-01-05T00:04:03;98416.78;;;12.52;76.82
64876;BME280;51369;49.862;9.908;2023-01-05T00:06:29;98407.78;;;12.52;76.88
64876;BME280;51369;49.862;9.908;2023-01-05T00:08:54;98420.44;;;12.51;76.86
64876;BME280;51369;49.862;9.908;2023-01-05T00:11:22;98410.47;;;12.52;76.83
64876;BME280;51369;49.862;9.908;2023-01-05T00:14:11;98415.91;;;12.52;76.77
64876;BME280;51369;49.862;9.908;2023-01-05T00:16:56;98410.47;;;12.52;77.22
64876;BME280;51369;49.862;9.908;2023-01-05T00:19:40;98407.78;;;12.52;77.53
64876;BME280;51369;49.862;9.908;2023-01-05T00:22:26;98401.47;;;12.51;76.99
64876;BME280;51369;49.862;9.908;2023-01-05T00:24:55;98380.78;;;12.50;77.23
64876;BME280;51369;49.862;9.908;2023-01-05T00:27:20;98378.94;;;12.51;76.56
64876;BME280;51369;49.862;9.908;2023-01-05T00:29:46;98386.09;;;12.52;77.00
64876;BME280;51369;49.862;9.908;2023-01-05T00:32:11;98388.75;;;12.53;77.35
64876;BME280;51369;49.862;9.908;2023-01-05T00:34:36;98375.28;;;12.52;77.29
64876;BME280;51369;49.862;9.908;2023-01-05T00:37:02;98372.63;;;12.50;77.43
64876;BME280;51369;49.862;9.908;2023-01-05T00:39:27;98382.69;;;12.48;77.38
64876;BME280;51369;49.862;9.908;2023-01-05T00:41:52;98380.13;;;12.45;78.18
64876;BME280;51369;49.862;9.908;2023-01-05T00:44:18;98377.50;;;12.44;78.11
64876;BME280;51369;49.862;9.908;2023-01-05T00:46:43;98375.81;;;12.41;78.07
64876;BME280;51369;49.862;9.908;2023-01-05T00:49:08;98372.22;;;12.41;78.49
64876;BME280;51369;49.862;9.908;2023-01-05T00:51:34;98370.41;;;12.41;78.34
64876;BME280;51369;49.862;9.908;2023-01-05T00:53:59;98384.00;;;12.39;78.06
64876;BME280;51369;49.862;9.908;2023-01-05T00:56:24;98365.94;;;12.40;77.93
64876;BME280;51369;49.862;9.908;2023-01-05T00:58:53;98355.97;;;12.41;77.91
64876;BME280;51369;49.862;9.908;2023-01-05T01:01:19;98351.28;;;12.44;78.14
64876;BME280;51369;49.862;9.908;2023-01-05T01:03:45;98342.22;;;12.45;78.59
64876;BME280;51369;49.862;9.908;2023-01-05T01:06:11;98341.19;;;12.48;78.80
64876;BME280;51369;49.862;9.908;2023-01-05T01:08:37;98336.63;;;12.48;77.88
64876;BME280;51369;49.862;9.908;2023-01-05T01:11:06;98344.75;;;12.48;78.60
64876;BME280;51369;49.862;9.908;2023-01-05T01:13:32;98336.56;;;12.50;78.31
64876;BME280;51369;49.862;9.908;2023-01-05T01:15:57;98338.41;;;12.49;77.68
64876;BME280;51369;49.862;9.908;2023-01-05T01:18:22;98351.84;;;12.51;78.22
64876;BME280;51369;49.862;9.908;2023-01-05T01:20:48;98350.97;;;12.50;78.14
64876;BME280;51369;49.862;9.908;2023-01-05T01:23:13;98359.03;;;12.52;78.38
64876;BME280;51369;49.862;9.908;2023-01-05T01:25:39;98361.72;;;12.52;78.47
64876;BME280;51369;49.862;9.908;2023-01-05T01:28:04;98363.47;;;12.53;78.48
64876;BME280;51369;49.862;9.908;2023-01-05T01:30:30;98366.19;;;12.53;78.71
64876;BME280;51369;49.862;9.908;2023-01-05T01:32:56;98356.31;;;12.52;79.41
64876;BME280;51369;49.862;9.908;2023-01-05T01:35:22;98363.47;;;12.53;78.92
64876;BME280;51369;49.862;9.908;2023-01-05T01:37:47;98367.94;;;12.54;79.01
64876;BME280;51369;49.862;9.908;2023-01-05T01:40:12;98364.38;;;12.53;79.85
64876;BME280;51369;49.862;9.908;2023-01-05T01:42:38;98354.41;;;12.54;79.77
64876;BME280;51369;49.862;9.908;2023-01-05T01:45:16;98366.19;;;12.53;80.08
64876;BME280;51369;49.862;9.908;2023-01-05T01:47:53;98363.47;;;12.53;78.80
64876;BME280;51369;49.862;9.908;2023-01-05T01:50:27;98370.66;;;12.54;79.53
64876;BME280;51369;49.862;9.908;2023-01-05T01:53:18;98363.47;;;12.53;79.67
64876;BME280;51369;49.862;9.908;2023-01-05T01:55:45;98366.13;;;12.54;79.83
64876;BME280;51369;49.862;9.908;2023-01-05T01:58:14;98371.69;;;12.51;80.30
64876;BME280;51369;49.862;9.908;2023-01-05T02:00:41;98381.50;;;12.54;80.94
64876;BME280;51369;49.862;9.908;2023-01-05T02:03:07;98377.97;;;12.52;80.94
64876;BME280;51369;49.862;9.908;2023-01-05T02:05:33;98380.78;;;12.50;80.96
64876;BME280;51369;49.862;9.908;2023-01-05T02:08:01;98381.72;;;12.49;80.88
64876;BME280;51369;49.862;9.908;2023-01-05T02:10:35;98373.59;;;12.49;80.19
64876;BME280;51369;49.862;9.908;2023-01-05T02:23:05;98365.63;;;12.46;79.72
64876;BME280;51369;49.862;9.908;2023-01-05T02:26:06;98352.09;;;12.46;80.20
64876;BME280;51369;49.862;9.908;2023-01-05T02:29:05;98360.13;;;12.48;80.66
64876;BME280;51369;49.862;9.908;2023-01-05T02:31:54;98363.66;;;12.50;80.45
64876;BME280;51369;49.862;9.908;2023-01-05T02:34:29;98362.53;;;12.54;79.73
64876;BME280;51369;49.862;9.908;2023-01-05T02:42:15;98357.91;;;12.56;79.76
64876;BME280;51369;49.862;9.908;2023-01-05T02:44:43;98363.25;;;12.57;80.30
64876;BME280;51369;49.862;9.908;2023-01-05T02:50:07;98368.75;;;12.56;79.74
64876;BME280;51369;49.862;9.908;2023-01-05T02:53:35;98358.88;;;12.55;79.67
64876;BME280;51369;49.862;9.908;2023-01-05T02:55:46;98359.75;;;12.55;80.22
64876;BME280;51369;49.862;9.908;2023-01-05T02:58:18;98369.69;;;12.55;79.58
64876;BME280;51369;49.862;9.908;2023-01-05T03:01:25;98365.25;;;12.54;79.95
64876;BME280;51369;49.862;9.908;2023-01-05T03:03:49;98360.63;;;12.56;80.30
64876;BME280;51369;49.862;9.908;2023-01-05T03:06:19;98367.78;;;12.57;79.78
64876;BME280;51369;49.862;9.908;2023-01-05T03:08:51;98358.78;;;12.56;80.49
64876;BME280;51369;49.862;9.908;2023-01-05T03:11:20;98374.09;;;12.57;80.57
64876;BME280;51369;49.862;9.908;2023-01-05T03:14:19;98364.38;;;12.53;81.21
64876;BME280;51369;49.862;9.908;2023-01-05T03:16:49;98364.38;;;12.53;81.07
64876;BME280;51369;49.862;9.908;2023-01-05T03:19:17;98358.06;;;12.53;80.54
64876;BME280;51369;49.862;9.908;2023-01-05T03:22:17;98354.56;;;12.51;81.44
64876;BME280;51369;49.862;9.908;2023-01-05T03:25:07;98356.41;;;12.50;81.30
64876;BME280;51369;49.862;9.908;2023-01-05T03:27:53;98359.19;;;12.49;80.78
64876;BME280;51369;49.862;9.908;2023-01-05T03:31:02;98363.78;;;12.47;81.32
64876;BME280;51369;49.862;9.908;2023-01-05T03:37:17;98362.84;;;12.48;81.96
64876;BME280;51369;49.862;9.908;2023-01-05T03:39:46;98369.22;;;12.47;81.65
64876;BME280;51369;49.862;9.908;2023-01-05T03:42:13;98362.91;;;12.46;81.25
64876;BME280;51369;49.862;9.908;2023-01-05T03:44:40;98367.47;;;12.46;81.25
64876;BME280;51369;49.862;9.908;2023-01-05T03:47:11;98357.59;;;12.45;81.52
64876;BME280;51369;49.862;9.908;2023-01-05T03:49:37;98369.38;;;12.44;81.53
64876;BME280;51369;49.862;9.908;2023-01-05T03:52:03;98369.38;;;12.44;82.09
64876;BME280;51369;49.862;9.908;2023-01-05T03:54:29;98370.41;;;12.41;81.75
64876;BME280;51369;49.862;9.908;2023-01-05T03:56:55;98359.56;;;12.41;80.97
64876;BME280;51369;49.862;9.908;2023-01-05T03:59:20;98368.63;;;12.40;81.72
64876;BME280;51369;49.862;9.908;2023-01-05T04:01:47;98360.53;;;12.40;80.59
64876;BME280;51369;49.862;9.908;2023-01-05T04:04:13;98374.06;;;12.40;81.74
64876;BME280;51369;49.862;9.908;2023-01-05T04:06:39;98363.31;;;12.38;81.98
64876;BME280;51369;49.862;9.908;2023-01-05T04:09:06;98383.22;;;12.37;81.78
64876;BME280;51369;49.862;9.908;2023-01-05T04:11:32;98380.50;;;12.37;81.13
64876;BME280;51369;49.862;9.908;2023-01-05T04:14:02;98384.16;;;12.36;81.04
64876;BME280;51369;49.862;9.908;2023-01-05T04:16:27;98398.66;;;12.35;80.83
64876;BME280;51369;49.862;9.908;2023-01-05T04:18:55;98389.66;;;12.35;81.00
64876;BME280;51369;49.862;9.908;2023-01-05T04:21:21;98397.84;;;12.33;80.62
64876;BME280;51369;49.862;9.908;2023-01-05T04:23:48;98406.06;;;12.32;81.17
64876;BME280;51369;49.862;9.908;2023-01-05T04:26:14;98394.41;;;12.30;80.98
64876;BME280;51369;49.862;9.908;2023-01-05T04:28:40;98417.91;;;12.29;81.46
64876;BME280;51369;49.862;9.908;2023-01-05T04:31:08;98415.28;;;12.28;81.06
64876;BME280;51369;49.862;9.908;2023-01-05T04:33:34;98428.97;;;12.25;80.25
64876;BME280;51369;49.862;9.908;2023-01-05T04:36:01;98431.75;;;12.23;80.48
64876;BME280;51369;49.862;9.908;2023-01-05T04:38:29;98432.84;;;12.19;80.63
64876;BME280;51369;49.862;9.908;2023-01-05T04:40:55;98453.69;;;12.17;80.75
64876;BME280;51369;49.862;9.908;2023-01-05T04:43:23;98433.06;;;12.15;80.34
64876;BME280;51369;49.862;9.908;2023-01-05T04:45:48;98439.53;;;12.12;80.68
64876;BME280;51369;49.862;9.908;2023-01-05T04:48:14;98431.50;;;12.11;80.73
64876;BME280;51369;49.862;9.908;2023-01-05T04:50:41;98442.38;;;12.09;81.08
64876;BME280;51369;49.862;9.908;2023-01-05T04:53:07;98441.59;;;12.07;80.59
64876;BME280;51369;49.862;9.908;2023-01-05T04:55:35;98439.03;;;12.04;80.71
64876;BME280;51369;49.862;9.908;2023-01-05T04:58:01;98444.56;;;12.01;80.68
64876;BME280;51369;49.862;9.908;2023-01-05T05:00:27;98463.59;;;11.99;81.40
64876;BME280;51369;49.862;9.908;2023-01-05T05:02:57;98461.97;;;11.95;80.11
64876;BME280;51369;49.862;9.908;2023-01-05T05:05:23;98454.00;;;11.92;80.05
64876;BME280;51369;49.862;9.908;2023-01-05T05:07:51;98444.28;;;11.88;79.72
64876;BME280;51369;49.862;9.908;2023-01-05T05:10:17;98449.75;;;11.87;79.46
64876;BME280;51369;49.862;9.908;2023-01-05T05:12:42;98451.53;;;11.88;79.08
64876;BME280;51369;49.862;9.908;2023-01-05T05:15:09;98450.56;;;11.89;78.69
64876;BME280;51369;49.862;9.908;2023-01-05T05:17:39;98447.94;;;11.87;78.57
64876;BME280;51369;49.862;9.908;2023-01-05T05:20:06;98454.22;;;11.88;78.23
64876;BME280;51369;49.862;9.908;2023-01-05T05:22:31;98445.28;;;11.86;77.14
64876;BME280;51369;49.862;9.908;2023-01-05T05:24:59;98457.06;;;11.85;78.16
64876;BME280;51369;49.862;9.908;2023-01-05T05:27:24;98461.66;;;11.83;78.47
64876;BME280;51369;49.862;9.908;2023-01-05T05:29:50;98472.63;;;11.80;77.84
64876;BME280;51369;49.862;9.908;2023-01-05T05:32:15;98475.34;;;11.80;77.99
64876;BME280;51369;49.862;9.908;2023-01-05T05:34:40;98468.25;;;11.77;77.27
64876;BME280;51369;49.862;9.908;2023-01-05T05:37:06;98470.09;;;11.75;77.82
64876;BME280;51369;49.862;9.908;2023-01-05T05:39:31;98469.22;;;11.74;77.28
64876;BME280;51369;49.862;9.908;2023-01-05T05:41:56;98481.88;;;11.74;78.10
64876;BME280;51369;49.862;9.908;2023-01-05T05:44:22;98467.63;;;11.70;77.92
64876;BME280;51369;49.862;9.908;2023-01-05T05:46:47;98480.47;;;11.65;77.52
64876;BME280;51369;49.862;9.908;2023-01-05T05:49:12;98471.53;;;11.63;77.88
64876;BME280;51369;49.862;9.908;2023-01-05T05:51:38;98481.69;;;11.58;77.07
64876;BME280;51369;49.862;9.908;2023-01-05T05:54:03;98481.91;;;11.54;77.06
64876;BME280;51369;49.862;9.908;2023-01-05T05:56:29;98469.41;;;11.51;76.56
64876;BME280;51369;49.862;9.908;2023-01-05T05:58:54;98489.34;;;11.49;76.33
64876;BME280;51369;49.862;9.908;2023-01-05T06:01:20;98488.47;;;11.48;77.24
64876;BME280;51369;49.862;9.908;2023-01-05T06:03:45;98482.16;;;11.48;76.80
64876;BME280;51369;49.862;9.908;2023-01-05T06:06:11;98485.81;;;11.47;76.21
64876;BME280;51369;49.862;9.908;2023-01-05T06:08:36;98492.19;;;11.46;77.02
64876;BME280;51369;49.862;9.908;2023-01-05T06:11:01;98486.84;;;11.44;77.11
64876;BME280;51369;49.862;9.908;2023-01-05T06:13:27;98488.59;;;11.45;76.43
64876;BME280;51369;49.862;9.908;2023-01-05T06:15:52;98488.59;;;11.45;76.11
64876;BME280;51369;49.862;9.908;2023-01-05T06:18:17;98491.44;;;11.42;75.91
64876;BME280;51369;49.862;9.908;2023-01-05T06:20:43;98494.28;;;11.39;76.43
64876;BME280;51369;49.862;9.908;2023-01-05T06:23:09;98498.88;;;11.37;75.71
64876;BME280;51369;49.862;9.908;2023-01-05T06:25:34;98497.09;;;11.36;76.25
64876;BME280;51369;49.862;9.908;2023-01-05T06:28:00;98493.78;;;11.29;76.17
64876;BME280;51369;49.862;9.908;2023-01-05T06:30:26;98505.69;;;11.25;75.53
64876;BME280;51369;49.862;9.908;2023-01-05T06:32:51;98520.28;;;11.21;75.06
64876;BME280;51369;49.862;9.908;2023-01-05T06:35:17;98510.47;;;11.19;74.69
64876;BME280;51369;49.862;9.908;2023-01-05T06:37:42;98518.72;;;11.16;75.39
64876;BME280;51369;49.862;9.908;2023-01-05T06:40:08;98526.06;;;11.12;75.49
64876;BME280;51369;49.862;9.908;2023-01-05T06:42:36;98536.13;;;11.08;75.60
64876;BME280;51369;49.862;9.908;2023-01-05T06:45:01;98533.56;;;11.05;76.05
64876;BME280;51369;49.862;9.908;2023-01-05T06:47:27;98538.97;;;11.05;75.82
64876;BME280;51369;49.862;9.908;2023-01-05T06:49:52;98541.59;;;11.07;75.14
64876;BME280;51369;49.862;9.908;2023-01-05T06:52:17;98545.19;;;11.07;75.48
64876;BME280;51369;49.862;9.908;2023-01-05T06:54:43;98542.41;;;11.09;74.96
64876;BME280;51369;49.862;9.908;2023-01-05T06:57:08;98549.63;;;11.08;74.95
64876;BME280;51369;49.862;9.908;2023-01-05T06:59:34;98563.16;;;11.08;75.06
64876;BME280;51369;49.862;9.908;2023-01-05T07:01:59;98573.97;;;11.08;75.75
64876;BME280;51369;49.862;9.908;2023-01-05T07:04:25;98574.91;;;11.07;75.13
64876;BME280;51369;49.862;9.908;2023-01-05T07:06:50;98574.84;;;11.09;75.04
64876;BME280;51369;49.862;9.908;2023-01-05T07:09:15;98576.59;;;11.10;75.65
64876;BME280;51369;49.862;9.908;2023-01-05T07:11:41;98572.00;;;11.12;75.56
64876;BME280;51369;49.862;9.908;2023-01-05T07:14:06;98569.31;;;11.12;75.44
64876;BME280;51369;49.862;9.908;2023-01-05T07:16:32;98580.94;;;11.14;75.22
64876;BME280;51369;49.862;9.908;2023-01-05T07:18:57;98566.53;;;11.14;74.76
64876;BME280;51369;49.862;9.908;2023-01-05T07:21:23;98564.78;;;11.13;75.12
64876;BME280;51369;49.862;9.908;2023-01-05T07:23:48;98570.25;;;11.11;74.62
64876;BME280;51369;49.862;9.908;2023-01-05T07:26:14;98582.06;;;11.08;75.07
64876;BME280;51369;49.862;9.908;2023-01-05T07:28:39;98579.50;;;11.05;75.10
64876;BME280;51369;49.862;9.908;2023-01-05T07:31:04;98585.03;;;11.02;74.55
64876;BME280;51369;49.862;9.908;2023-01-05T07:33:31;98594.13;;;11.00;74.17
64876;BME280;51369;49.862;9.908;2023-01-05T07:36:01;98575.28;;;10.98;75.02
64876;BME280;51369;49.862;9.908;2023-01-05T07:38:27;98584.13;;;11.02;75.16
64876;BME280;51369;49.862;9.908;2023-01-05T07:40:52;98584.06;;;11.03;75.12
64876;BME280;51369;49.862;9.908;2023-01-05T07:43:17;98583.94;;;11.06;75.00
64876;BME280;51369;49.862;9.908;2023-01-05T07:45:43;98583.00;;;11.07;75.40
64876;BME280;51369;49.862;9.908;2023-01-05T07:48:08;98605.50;;;11.08;75.38
64876;BME280;51369;49.862;9.908;2023-01-05T07:50:34;98594.69;;;11.08;75.23
64876;BME280;51369;49.862;9.908;2023-01-05T07:53:00;98600.84;;;11.12;74.30
64876;BME280;51369;49.862;9.908;2023-01-05T07:55:25;98599.72;;;11.17;74.55
64876;BME280;51369;49.862;9.908;2023-01-05T07:57:51;98608.59;;;11.21;74.97
64876;BME280;51369;49.862;9.908;2023-01-05T08:00:16;98611.16;;;11.24;75.27
64876;BME280;51369;49.862;9.908;2023-01-05T08:02:42;98615.63;;;11.25;74.08
64876;BME280;51369;49.862;9.908;2023-01-05T08:05:08;98622.66;;;11.29;74.50
64876;BME280;51369;49.862;9.908;2023-01-05T08:07:35;98628.81;;;11.32;74.97
64876;BME280;51369;49.862;9.908;2023-01-05T08:10:00;98626.94;;;11.34;74.12
64876;BME280;51369;49.862;9.908;2023-01-05T08:12:45;98628.63;;;11.37;73.73
64876;BME280;51369;49.862;9.908;2023-01-05T08:15:29;98624.03;;;11.39;74.44
64876;BME280;51369;49.862;9.908;2023-01-05T08:17:54;98630.19;;;11.43;74.88
64876;BME280;51369;49.862;9.908;2023-01-05T08:20:19;98631.94;;;11.44;73.65
64876;BME280;51369;49.862;9.908;2023-01-05T08:22:51;98644.47;;;11.46;74.18
64876;BME280;51369;49.862;9.908;2023-01-05T08:25:16;98637.97;;;11.50;73.47
64876;BME280;51369;49.862;9.908;2023-01-05T08:27:42;98642.38;;;11.53;74.09
64876;BME280;51369;49.862;9.908;2023-01-05T08:30:07;98651.31;;;11.55;73.21
64876;BME280;51369;49.862;9.908;2023-01-05T08:32:33;98639.53;;;11.56;74.08
64876;BME280;51369;49.862;9.908;2023-01-05T08:34:58;98645.84;;;11.56;73.77
64876;BME280;51369;49.862;9.908;2023-01-05T08:37:23;98635.97;;;11.55;73.68
64876;BME280;51369;49.862;9.908;2023-01-05T08:39:49;98645.97;;;11.53;73.47
64876;BME280;51369;49.862;9.908;2023-01-05T08:42:14;98645.16;;;11.51;73.02
64876;BME280;51369;49.862;9.908;2023-01-05T08:44:39;98656.84;;;11.52;73.41
64876;BME280;51369;49.862;9.908;2023-01-05T08:47:05;98656.72;;;11.55;73.74
64876;BME280;51369;49.862;9.908;2023-01-05T08:49:30;98661.88;;;11.61;73.98
64876;BME280;51369;49.862;9.908;2023-01-05T08:51:55;98653.50;;;11.67;73.99
64876;BME280;51369;49.862;9.908;2023-01-05T08:54:21;98672.09;;;11.74;73.62
64876;BME280;51369;49.862;9.908;2023-01-05T08:56:46;98675.53;;;11.80;73.88
64876;BME280;51369;49.862;9.908;2023-01-05T08:59:14;98672.41;;;11.89;73.69
64876;BME280;51369;49.862;9.908;2023-01-05T09:01:40;98664.91;;;11.95;72.79
64876;BME280;51369;49.862;9.908;2023-01-05T09:04:05;98664.84;;;11.97;72.99
64876;BME280;51369;49.862;9.908;2023-01-05T09:06:31;98671.88;;;12.01;72.83
64876;BME280;51369;49.862;9.908;2023-01-05T09:08:56;98679.06;;;12.02;73.03
64876;BME280;51369;49.862;9.908;2023-01-05T09:11:23;98687.19;;;12.02;72.54
64876;BME280;51369;49.862;9.908;2023-01-05T09:13:55;98697.88;;;12.05;72.78
64876;BME280;51369;49.862;9.908;2023-01-05T09:16:23;98697.88;;;12.05;73.34
64876;BME280;51369;49.862;9.908;2023-01-05T09:18:50;98704.16;;;12.05;73.19
64876;BME280;51369;49.862;9.908;2023-01-05T09:21:16;98699.69;;;12.04;73.62
64876;BME280;51369;49.862;9.908;2023-01-05T09:23:41;98692.59;;;12.02;73.93
64876;BME280;51369;49.862;9.908;2023-01-05T09:26:09;98690.09;;;11.97;73.80
64876;BME280;51369;49.862;9.908;2023-01-05T09:28:34;98693.00;;;11.93;72.78
64876;BME280;51369;49.862;9.908;2023-01-05T09:31:12;98704.19;;;11.84;73.68
64876;BME280;51369;49.862;9.908;2023-01-05T09:33:39;98703.38;;;11.82;73.34
64876;BME280;51369;49.862;9.908;2023-01-05T09:36:05;98705.28;;;11.80;73.26
64876;BME280;51369;49.862;9.908;2023-01-05T09:38:31;98717.84;;;11.81;73.58
64876;BME280;51369;49.862;9.908;2023-01-05T09:41:14;98737.69;;;11.81;73.92
64876;BME280;51369;49.862;9.908;2023-01-05T09:43:46;98717.59;;;11.87;73.77
64876;BME280;51369;49.862;9.908;2023-01-05T09:46:17;98731.69;;;11.95;73.50
64876;BME280;51369;49.862;9.908;2023-01-05T09:48:49;98725.94;;;12.02;73.65
64876;BME280;51369;49.862;9.908;2023-01-05T09:51:16;98734.69;;;12.09;73.31
64876;BME280;51369;49.862;9.908;2023-01-05T09:53:42;98726.19;;;12.17;73.78
64876;BME280;51369;49.862;9.908;2023-01-05T09:56:27;98731.53;;;12.18;72.93
64876;BME280;51369;49.862;9.908;2023-01-05T09:59:06;98735.94;;;12.21;73.54
64876;BME280;51369;49.862;9.908;2023-01-05T10:01:38;98734.66;;;12.29;72.97
64876;BME280;51369;49.862;9.908;2023-01-05T10:04:13;98737.03;;;12.37;73.62
64876;BME280;51369;49.862;9.908;2023-01-05T10:06:42;98740.22;;;12.47;72.90
64876;BME280;51369;49.862;9.908;2023-01-05T10:09:13;98743.47;;;12.55;73.38
64876;BME280;51369;49.862;9.908;2023-01-05T10:12:08;98747.72;;;12.60;72.88
64876;BME280;51369;49.862;9.908;2023-01-05T10:15:05;98749.34;;;12.64;73.05
64876;BME280;51369;49.862;9.908;2023-01-05T10:17:34;98761.00;;;12.66;73.42
64876;BME280;51369;49.862;9.908;2023-01-05T10:20:00;98741.97;;;12.68;73.14
64876;BME280;51369;49.862;9.908;2023-01-05T10:27:54;98746.69;;;12.63;72.83
64876;BME280;51369;49.862;9.908;2023-01-05T10:30:23;98747.50;;;12.65;73.03
64876;BME280;51369;49.862;9.908;2023-01-05T10:35:54;98755.63;;;12.65;72.72
64876;BME280;51369;49.862;9.908;2023-01-05T10:44:47;98750.50;;;12.59;72.82
64876;BME280;51369;49.862;9.908;2023-01-05T10:46:53;98754.91;;;12.61;72.82
64876;BME280;51369;49.862;9.908;2023-01-05T10:49:23;98764.84;;;12.61;72.40
64876;BME280;51369;49.862;9.908;2023-01-05T10:51:50;98762.88;;;12.64;72.64
64876;BME280;51369;49.862;9.908;2023-01-05T11:02:28;98756.19;;;12.73;73.16
64876;BME280;51369;49.862;9.908;2023-01-05T11:05:02;98763.44;;;12.73;72.72
64876;BME280;51369;49.862;9.908;2023-01-05T11:07:28;98767.75;;;12.77;72.39
64876;BME280;51369;49.862;9.908;2023-01-05T11:09:53;98765.84;;;12.79;71.95
64876;BME280;51369;49.862;9.908;2023-01-05T11:12:21;98766.75;;;12.79;72.04
64876;BME280;51369;49.862;9.908;2023-01-05T11:14:53;98766.75;;;12.79;72.42
64876;BME280;51369;49.862;9.908;2023-01-05T11:17:21;98768.69;;;12.76;72.36
64876;BME280;51369;49.862;9.908;2023-01-05T11:19:51;98773.38;;;12.72;72.33
64876;BME280;51369;49.862;9.908;2023-01-05T11:22:34;98784.34;;;12.69;72.59
64876;BME280;51369;49.862;9.908;2023-01-05T11:25:30;98774.53;;;12.66;72.71
64876;BME280;51369;49.862;9.908;2023-01-05T11:28:16;98781.09;;;12.61;72.32
64876;BME280;51369;49.862;9.908;2023-01-05T11:30:58;98784.91;;;12.57;73.05
64876;BME280;51369;49.862;9.908;2023-01-05T11:33:27;98785.09;;;12.52;73.24
64876;BME280;51369;49.862;9.908;2023-01-05T11:35:54;98784.34;;;12.49;73.01
64876;BME280;51369;49.862;9.908;2023-01-05T11:38:26;98792.63;;;12.46;73.97
64876;BME280;51369;49.862;9.908;2023-01-05T11:40:53;98788.22;;;12.43;73.36
64876;BME280;51369;49.862;9.908;2023-01-05T11:43:23;98789.22;;;12.41;74.19
64876;BME280;51369;49.862;9.908;2023-01-05T11:45:51;98784.81;;;12.38;74.50
64876;BME280;51369;49.862;9.908;2023-01-05T11:48:20;98784.00;;;12.36;73.84
64876;BME280;51369;49.862;9.908;2023-01-05T11:50:50;98778.66;;;12.34;74.35
64876;BME280;51369;49.862;9.908;2023-01-05T11:53:36;98785.16;;;12.30;74.29
64876;BME280;51369;49.862;9.908;2023-01-05T11:56:19;98776.09;;;12.31;73.94
64876;BME280;51369;49.862;9.908;2023-01-05T11:58:47;98780.50;;;12.34;73.81
64876;BME280;51369;49.862;9.908;2023-01-05T12:04:24;98778.41;;;12.41;74.00
64876;BME280;51369;49.862;9.908;2023-01-05T12:09:43;98769.66;;;12.54;74.79
64876;BME280;51369;49.862;9.908;2023-01-05T12:17:18;98771.28;;;12.79;73.51
64876;BME280;51369;49.862;9.908;2023-01-05T12:19:56;98767.63;;;12.80;73.11
64876;BME280;51369;49.862;9.908;2023-01-05T12:22:52;98772.81;;;12.84;72.84
64876;BME280;51369;49.862;9.908;2023-01-05T12:25:32;98762.50;;;12.92;72.50
64876;BME280;51369;49.862;9.908;2023-01-05T12:30:50;98766.69;;;12.99;72.82
64876;BME280;51369;49.862;9.908;2023-01-05T12:49:54;98769.41;;;12.99;71.64
64876;BME280;51369;49.862;9.908;2023-01-05T12:57:42;98767.44;;;13.03;71.92
64876;BME280;51369;49.862;9.908;2023-01-05T13:00:13;98776.31;;;13.07;71.53
64876;BME280;51369;49.862;9.908;2023-01-05T13:02:42;98775.22;;;13.11;71.10
64876;BME280;51369;49.862;9.908;2023-01-05T13:05:17;98772.38;;;13.14;70.85
64876;BME280;51369;49.862;9.908;2023-01-05T13:10:48;98776.28;;;13.27;72.77
64876;BME280;51369;49.862;9.908;2023-01-05T13:13:21;98779.53;;;13.35;72.33
64876;BME280;51369;49.862;9.908;2023-01-05T13:16:19;98778.44;;;13.39;71.65
64876;BME280;51369;49.862;9.908;2023-01-05T13:18:51;98785.41;;;13.45;70.52
64876;BME280;51369;49.862;9.908;2023-01-05T13:21:19;98785.25;;;13.48;70.32
64876;BME280;51369;49.862;9.908;2023-01-05T13:23:56;98779.81;;;13.48;69.90
64876;BME280;51369;49.862;9.908;2023-01-05T13:26:22;98768.97;;;13.48;70.03
64876;BME280;51369;49.862;9.908;2023-01-05T13:28:51;98782.59;;;13.46;70.16
64876;BME280;51369;49.862;9.908;2023-01-05T13:31:29;98782.81;;;13.42;69.89
64876;BME280;51369;49.862;9.908;2023-01-05T13:39:31;98796.16;;;13.27;70.51
64876;BME280;51369;49.862;9.908;2023-01-05T13:45:07;98794.63;;;13.22;70.79
64876;BME280;51369;49.862;9.908;2023-01-05T13:48:12;98787.56;;;13.18;70.65
64876;BME280;51369;49.862;9.908;2023-01-05T13:50:54;98799.38;;;13.17;70.56
64876;BME280;51369;49.862;9.908;2023-01-05T13:53:26;98793.00;;;13.18;70.09
64876;BME280;51369;49.862;9.908;2023-01-05T13:56:04;98796.59;;;13.18;69.83
64876;BME280;51369;49.862;9.908;2023-01-05T13:58:35;98800.91;;;13.22;70.25
64876;BME280;51369;49.862;9.908;2023-01-05T14:01:03;98809.78;;;13.26;71.57
64876;BME280;51369;49.862;9.908;2023-01-05T14:03:46;98819.75;;;13.25;69.94
64876;BME280;51369;49.862;9.908;2023-01-05T14:06:30;98818.81;;;13.26;69.90
64876;BME280;51369;49.862;9.908;2023-01-05T14:09:02;98809.66;;;13.29;69.26
64876;BME280;51369;49.862;9.908;2023-01-05T14:11:28;98815.88;;;13.31;68.69
64876;BME280;51369;49.862;9.908;2023-01-05T14:19:23;98823.00;;;13.33;67.58
64876;BME280;51369;49.862;9.908;2023-01-05T14:24:38;98833.78;;;13.35;67.11
64876;BME280;51369;49.862;9.908;2023-01-05T14:27:11;98837.16;;;13.40;67.11
64876;BME280;51369;49.862;9.908;2023-01-05T14:34:48;98852.41;;;13.43;66.93
64876;BME280;51369;49.862;9.908;2023-01-05T14:37:28;98856.94;;;13.42;67.07
64876;BME280;51369;49.862;9.908;2023-01-05T14:39:57;98857.81;;;13.43;66.25
64876;BME280;51369;49.862;9.908;2023-01-05T14:42:31;98849.69;;;13.43;67.61
64876;BME280;51369;49.862;9.908;2023-01-05T14:45:02;98855.03;;;13.44;67.56
64876;BME280;51369;49.862;9.908;2023-01-05T14:47:34;98859.66;;;13.42;66.95
64876;BME280;51369;49.862;9.908;2023-01-05T14:50:00;98864.13;;;13.43;67.81
64876;BME280;51369;49.862;9.908;2023-01-05T14:52:52;98870.72;;;13.38;67.18
64876;BME280;51369;49.862;9.908;2023-01-05T14:55:29;98877.16;;;13.35;66.93
64876;BME280;51369;49.862;9.908;2023-01-05T14:57:57;98877.38;;;13.30;66.77
64876;BME280;51369;49.862;9.908;2023-01-05T15:03:39;98886.94;;;13.19;66.23